Terminal Aerodrome Forecast
Issued by NWS

Home | Current Version | Previous Version | Text Only | Print | Product List | Glossary On
Versions: 1 2 3 4 5 6 7 8 9 10 11 12 13 14 15 16 17 18 19
607
FTUS45 KRIW 271909 AAA
TAFCPR
TAF AMD
KCPR 271909Z 2719/2818 35014KT P6SM VCSH BKN022
      TEMPO 2720/2724 5SM -RA SCT010 OVC018
     FM280000 33010G20KT 3SM -RASN OVC015
     FM280400 36012KT 1SM -SN OVC009=

USA.gov is the U.S. government's official web portal to all federal, state and local government web resources and services.